• Join FlightAware (Why Join?)
  • Login
  • US Flag 
05:01AM EDT


 

Airport Tracker/Info


-or-


 

Live Flight TrackerFlight Track Log ✈ N6540Y ✈ 12-Mar-2014 ✈ KEYW - KAPF

Flight Track Log - Related Links

Times and Time Zones

All times are in EDT time to prevent confusion due to time zone crossing. See the N6540Y flight status page for this flight to view local times or setup timezone preferences in your user account.

Time Position Orientation Groundspeed Altitude Reporting Facility
EDT Latitude Longitude Course Direction KTS MPH feet Rate Location/Type
04:02PM 24.5569 -81.7722 169° South 130 150 5,000  Level Miami Center
04:03PM 24.6725 -81.7561 North 165 190 2,100 -1,200 Descending Miami Center
04:04PM 24.7083 -81.7439 17° North 149 171 2,600 420 Climbing Miami Center
04:05PM 24.7506 -81.7319 14° North 162 186 3,000 420 Climbing Miami Center
04:06PM 24.7883 -81.7242 11° North 157 181 3,500 420 Climbing Miami Center
04:07PM 24.8264 -81.7119 16° North 150 173 3,900 300 Climbing Miami Center
04:08PM 24.8622 -81.6997 17° North 138 159 4,200 300 Climbing Miami Center
04:09PM 24.8981 -81.6872 18° North 133 153 4,500 300 Climbing Miami Center
04:10PM 24.9361 -81.6728 19° North 133 153 4,900 240 Climbing Miami Center
04:11PM 24.9742 -81.6628 13° North 133 153 5,000 60 Climbing Miami Center
04:12PM 25.0164 -81.6508 14° North 138 159 5,100  Climbing Miami Center
04:13PM 25.0583 -81.6386 15° North 149 171 5,000  Descending Miami Center
04:14PM 25.1008 -81.6219 20° North 149 171 5,100 -120 Climbing Miami Center
04:15PM 25.1450 -81.6122 11° North 149 171 4,800 -420 Descending Miami Center
04:16PM 25.1914 -81.5981 15° North 154 177 4,300 -480 Descending Miami Center
04:17PM 25.2378 -81.5836 16° North 165 190 3,900 -180 Descending Miami Center
04:18PM 25.2778 -81.5714 15° North 160 184 4,000 60 Climbing Miami Center
04:19PM 25.3197 -81.5617 12° North 155 178 4,100  Climbing Miami Center
04:20PM 25.3619 -81.5472 17° North 155 178 4,000 -60 Descending Miami Center
04:21PM 25.4022 -81.5350 15° North 150 173 4,000  Level Miami Center
04:22PM 25.4464 -81.5228 14° North 150 173 4,000  Level Miami Center
04:23PM 25.4883 -81.5153 North 145 167 4,000 -60 Level Miami Center
04:24PM 25.5281 -81.5189 355° North 140 161 3,900  Descending Miami Center
04:25PM 25.5692 -81.5389 336° Northwest 145 167 4,100 60 Climbing Miami Center
04:26PM 25.6061 -81.5567 337° Northwest 145 167 4,100  Level Miami Center
04:27PM 25.6472 -81.5719 341° North 150 173 4,100 -60 Level Miami Center
04:28PM 25.6928 -81.5922 338° Northwest 150 173 4,000 -60 Descending Miami Center
04:29PM 25.7319 -81.6053 343° North 150 173 4,000  Level Miami Center
04:30PM 25.7733 -81.6183 344° North 145 167 4,000  Level Miami Center
04:31PM 25.8125 -81.6314 343° North 145 167 4,100  Climbing Miami Center
04:32PM 25.8536 -81.6469 341° North 145 167 4,000 -420 Descending Miami Center
04:33PM 25.8950 -81.6625 341° North 150 173 3,300 -540 Descending Miami Center
04:34PM 25.9383 -81.6758 345° North 155 178 3,000 -240 Descending Miami Center
04:35PM 25.9842 -81.6822 353° North 155 178 2,900 -180 Descending Miami Center
04:36PM 26.0233 -81.6931 346° North 160 184 2,700 -300 Descending Miami Center
04:37PM 26.0669 -81.7064 345° North 160 184 2,300 -360 Descending Miami Center
04:38PM 26.1103 -81.7150 350° North 160 184 2,000 -360 Descending Miami Center
04:39PM 26.1472 -81.7350 334° Northwest 152 175 1,600 -420 Descending Miami Center